sensor_id;sensor_type;location;lat;lon;timestamp;temperature;humidity
50955;DHT22;36966;48.064;-0.792;2023-05-19T00:00:19;20.10;39.90
50955;DHT22;36966;48.064;-0.792;2023-05-19T00:02:39;20.10;40.00
50955;DHT22;36966;48.064;-0.792;2023-05-19T00:05:02;20.10;40.00
50955;DHT22;36966;48.064;-0.792;2023-05-19T00:07:23;20.10;40.00
50955;DHT22;36966;48.064;-0.792;2023-05-19T00:09:47;20.00;40.10
50955;DHT22;36966;48.064;-0.792;2023-05-19T00:12:07;20.00;40.10
50955;DHT22;36966;48.064;-0.792;2023-05-19T00:14:28;20.00;40.10
50955;DHT22;36966;48.064;-0.792;2023-05-19T00:16:51;20.00;40.20
50955;DHT22;36966;48.064;-0.792;2023-05-19T00:19:15;20.00;40.20
50955;DHT22;36966;48.064;-0.792;2023-05-19T00:21:35;20.00;40.20
50955;DHT22;36966;48.064;-0.792;2023-05-19T00:23:58;20.00;40.30
50955;DHT22;36966;48.064;-0.792;2023-05-19T00:26:26;20.00;40.30
50955;DHT22;36966;48.064;-0.792;2023-05-19T00:28:46;20.00;40.30
50955;DHT22;36966;48.064;-0.792;2023-05-19T00:31:05;20.00;40.40
50955;DHT22;36966;48.064;-0.792;2023-05-19T00:33:25;20.00;40.40
50955;DHT22;36966;48.064;-0.792;2023-05-19T00:35:46;20.00;40.40
50955;DHT22;36966;48.064;-0.792;2023-05-19T00:38:06;20.00;40.50
50955;DHT22;36966;48.064;-0.792;2023-05-19T00:40:25;20.00;40.50
50955;DHT22;36966;48.064;-0.792;2023-05-19T00:42:44;20.00;40.50
50955;DHT22;36966;48.064;-0.792;2023-05-19T00:45:04;20.00;40.60
50955;DHT22;36966;48.064;-0.792;2023-05-19T00:47:26;19.90;40.60
50955;DHT22;36966;48.064;-0.792;2023-05-19T00:49:46;19.90;40.60
50955;DHT22;36966;48.064;-0.792;2023-05-19T00:52:05;19.90;40.70
50955;DHT22;36966;48.064;-0.792;2023-05-19T00:54:24;19.90;40.70
50955;DHT22;36966;48.064;-0.792;2023-05-19T00:56:44;19.90;40.70
50955;DHT22;36966;48.064;-0.792;2023-05-19T00:59:03;19.90;40.80
50955;DHT22;36966;48.064;-0.792;2023-05-19T01:01:22;19.90;40.80
50955;DHT22;36966;48.064;-0.792;2023-05-19T01:03:44;19.80;40.90
50955;DHT22;36966;48.064;-0.792;2023-05-19T01:06:05;19.80;40.90
50955;DHT22;36966;48.064;-0.792;2023-05-19T01:08:25;19.80;41.00
50955;DHT22;36966;48.064;-0.792;2023-05-19T01:10:44;19.80;41.00
50955;DHT22;36966;48.064;-0.792;2023-05-19T01:13:04;19.80;41.00
50955;DHT22;36966;48.064;-0.792;2023-05-19T01:15:23;19.80;41.10
50955;DHT22;36966;48.064;-0.792;2023-05-19T01:17:47;19.80;41.10
50955;DHT22;36966;48.064;-0.792;2023-05-19T01:20:31;19.80;41.20
50955;DHT22;36966;48.064;-0.792;2023-05-19T01:23:06;19.80;41.20
50955;DHT22;36966;48.064;-0.792;2023-05-19T01:25:50;19.80;41.20
50955;DHT22;36966;48.064;-0.792;2023-05-19T01:30:39;19.70;41.30
50955;DHT22;36966;48.064;-0.792;2023-05-19T01:33:00;19.70;41.40
50955;DHT22;36966;48.064;-0.792;2023-05-19T01:35:22;19.70;41.40
50955;DHT22;36966;48.064;-0.792;2023-05-19T01:37:43;19.70;41.40
50955;DHT22;36966;48.064;-0.792;2023-05-19T01:40:03;19.70;41.40
50955;DHT22;36966;48.064;-0.792;2023-05-19T01:42:26;19.70;41.50
50955;DHT22;36966;48.064;-0.792;2023-05-19T01:44:51;19.70;41.50
50955;DHT22;36966;48.064;-0.792;2023-05-19T01:47:11;19.70;41.60
50955;DHT22;36966;48.064;-0.792;2023-05-19T01:49:31;19.70;41.60
50955;DHT22;36966;48.064;-0.792;2023-05-19T01:51:52;19.70;41.60
50955;DHT22;36966;48.064;-0.792;2023-05-19T01:54:12;19.70;41.60
50955;DHT22;36966;48.064;-0.792;2023-05-19T01:56:34;19.70;41.70
50955;DHT22;36966;48.064;-0.792;2023-05-19T01:58:58;19.70;41.70
50955;DHT22;36966;48.064;-0.792;2023-05-19T02:04:39;19.70;41.70
50955;DHT22;36966;48.064;-0.792;2023-05-19T02:07:02;19.60;41.80
50955;DHT22;36966;48.064;-0.792;2023-05-19T02:11:49;19.60;41.80
50955;DHT22;36966;48.064;-0.792;2023-05-19T02:14:19;19.60;41.80
50955;DHT22;36966;48.064;-0.792;2023-05-19T02:16:38;19.60;41.90
50955;DHT22;36966;48.064;-0.792;2023-05-19T02:19:00;19.60;41.90
50955;DHT22;36966;48.064;-0.792;2023-05-19T02:21:19;19.60;41.90
50955;DHT22;36966;48.064;-0.792;2023-05-19T02:23:39;19.60;42.00
50955;DHT22;36966;48.064;-0.792;2023-05-19T02:25:59;19.50;41.90
50955;DHT22;36966;48.064;-0.792;2023-05-19T02:28:19;19.60;42.00
50955;DHT22;36966;48.064;-0.792;2023-05-19T02:30:38;19.60;42.00
50955;DHT22;36966;48.064;-0.792;2023-05-19T02:32:58;19.60;42.00
50955;DHT22;36966;48.064;-0.792;2023-05-19T02:35:19;19.50;42.00
50955;DHT22;36966;48.064;-0.792;2023-05-19T02:37:38;19.50;42.00
50955;DHT22;36966;48.064;-0.792;2023-05-19T02:40:04;19.50;42.00
50955;DHT22;36966;48.064;-0.792;2023-05-19T02:42:24;19.50;42.00
50955;DHT22;36966;48.064;-0.792;2023-05-19T02:44:43;19.50;42.10
50955;DHT22;36966;48.064;-0.792;2023-05-19T02:47:02;19.50;42.10
50955;DHT22;36966;48.064;-0.792;2023-05-19T02:49:21;19.50;42.10
50955;DHT22;36966;48.064;-0.792;2023-05-19T02:51:41;19.50;42.10
50955;DHT22;36966;48.064;-0.792;2023-05-19T02:54:00;19.50;42.10
50955;DHT22;36966;48.064;-0.792;2023-05-19T02:56:20;19.50;42.10
50955;DHT22;36966;48.064;-0.792;2023-05-19T02:58:39;19.50;42.10
50955;DHT22;36966;48.064;-0.792;2023-05-19T03:01:00;19.50;42.10
50955;DHT22;36966;48.064;-0.792;2023-05-19T03:03:20;19.50;42.10
50955;DHT22;36966;48.064;-0.792;2023-05-19T03:05:40;19.50;42.10
50955;DHT22;36966;48.064;-0.792;2023-05-19T03:07:59;19.50;42.10
50955;DHT22;36966;48.064;-0.792;2023-05-19T03:10:19;19.40;42.10
50955;DHT22;36966;48.064;-0.792;2023-05-19T03:12:44;19.40;42.20
50955;DHT22;36966;48.064;-0.792;2023-05-19T03:15:04;19.50;42.20
50955;DHT22;36966;48.064;-0.792;2023-05-19T03:17:24;19.40;42.20
50955;DHT22;36966;48.064;-0.792;2023-05-19T03:19:53;19.40;42.20
50955;DHT22;36966;48.064;-0.792;2023-05-19T03:22:13;19.50;42.20
50955;DHT22;36966;48.064;-0.792;2023-05-19T03:24:33;19.50;42.20
50955;DHT22;36966;48.064;-0.792;2023-05-19T03:26:52;19.40;42.20
50955;DHT22;36966;48.064;-0.792;2023-05-19T03:29:32;19.40;42.20
50955;DHT22;36966;48.064;-0.792;2023-05-19T03:31:51;19.40;42.20
50955;DHT22;36966;48.064;-0.792;2023-05-19T03:34:10;19.40;42.20
50955;DHT22;36966;48.064;-0.792;2023-05-19T03:36:29;19.40;42.20
50955;DHT22;36966;48.064;-0.792;2023-05-19T03:38:57;19.40;42.30
50955;DHT22;36966;48.064;-0.792;2023-05-19T03:41:17;19.40;42.20
50955;DHT22;36966;48.064;-0.792;2023-05-19T03:43:36;19.40;42.30
50955;DHT22;36966;48.064;-0.792;2023-05-19T03:45:55;19.40;42.30
50955;DHT22;36966;48.064;-0.792;2023-05-19T03:48:17;19.40;42.30
50955;DHT22;36966;48.064;-0.792;2023-05-19T03:50:36;19.40;42.30
50955;DHT22;36966;48.064;-0.792;2023-05-19T03:52:56;19.40;42.30
50955;DHT22;36966;48.064;-0.792;2023-05-19T03:55:15;19.30;42.30
50955;DHT22;36966;48.064;-0.792;2023-05-19T03:57:34;19.40;42.30
50955;DHT22;36966;48.064;-0.792;2023-05-19T03:59:53;19.30;42.30
50955;DHT22;36966;48.064;-0.792;2023-05-19T04:02:12;19.30;42.30
50955;DHT22;36966;48.064;-0.792;2023-05-19T04:04:34;19.40;42.40
50955;DHT22;36966;48.064;-0.792;2023-05-19T04:06:55;19.30;42.30
50955;DHT22;36966;48.064;-0.792;2023-05-19T04:09:16;19.30;42.40
50955;DHT22;36966;48.064;-0.792;2023-05-19T04:11:35;19.40;42.40
50955;DHT22;36966;48.064;-0.792;2023-05-19T04:13:55;19.30;42.50
50955;DHT22;36966;48.064;-0.792;2023-05-19T04:16:14;19.30;42.50
50955;DHT22;36966;48.064;-0.792;2023-05-19T04:18:36;19.30;42.40
50955;DHT22;36966;48.064;-0.792;2023-05-19T04:20:56;19.30;42.50
50955;DHT22;36966;48.064;-0.792;2023-05-19T04:23:15;19.30;42.60
50955;DHT22;36966;48.064;-0.792;2023-05-19T04:25:37;19.30;42.60
50955;DHT22;36966;48.064;-0.792;2023-05-19T04:27:56;19.30;42.60
50955;DHT22;36966;48.064;-0.792;2023-05-19T04:30:16;19.30;42.70
50955;DHT22;36966;48.064;-0.792;2023-05-19T04:32:40;19.30;42.60
50955;DHT22;36966;48.064;-0.792;2023-05-19T04:34:59;19.30;42.70
50955;DHT22;36966;48.064;-0.792;2023-05-19T04:37:18;19.30;42.70
50955;DHT22;36966;48.064;-0.792;2023-05-19T04:39:39;19.20;42.80
50955;DHT22;36966;48.064;-0.792;2023-05-19T04:42:11;19.20;42.80
50955;DHT22;36966;48.064;-0.792;2023-05-19T04:44:37;19.30;42.80
50955;DHT22;36966;48.064;-0.792;2023-05-19T04:46:58;19.30;42.80
50955;DHT22;36966;48.064;-0.792;2023-05-19T04:49:17;19.20;42.80
50955;DHT22;36966;48.064;-0.792;2023-05-19T04:51:37;19.20;42.80
50955;DHT22;36966;48.064;-0.792;2023-05-19T04:53:59;19.20;43.00
50955;DHT22;36966;48.064;-0.792;2023-05-19T04:56:19;19.30;43.10
50955;DHT22;36966;48.064;-0.792;2023-05-19T04:58:38;19.30;43.00
50955;DHT22;36966;48.064;-0.792;2023-05-19T05:00:58;19.30;43.20
50955;DHT22;36966;48.064;-0.792;2023-05-19T05:03:17;19.30;43.00
50955;DHT22;36966;48.064;-0.792;2023-05-19T05:05:37;19.30;43.00
50955;DHT22;36966;48.064;-0.792;2023-05-19T05:07:56;19.30;43.10
50955;DHT22;36966;48.064;-0.792;2023-05-19T05:10:16;19.30;43.00
50955;DHT22;36966;48.064;-0.792;2023-05-19T05:12:36;19.30;43.20
50955;DHT22;36966;48.064;-0.792;2023-05-19T05:14:56;19.30;43.10
50955;DHT22;36966;48.064;-0.792;2023-05-19T05:17:15;19.30;43.20
50955;DHT22;36966;48.064;-0.792;2023-05-19T05:19:35;19.30;43.10
50955;DHT22;36966;48.064;-0.792;2023-05-19T05:21:54;19.30;43.10
50955;DHT22;36966;48.064;-0.792;2023-05-19T05:24:14;19.30;43.10
50955;DHT22;36966;48.064;-0.792;2023-05-19T05:26:34;19.30;43.30
50955;DHT22;36966;48.064;-0.792;2023-05-19T05:28:54;19.30;43.20
50955;DHT22;36966;48.064;-0.792;2023-05-19T05:31:13;19.30;43.30
50955;DHT22;36966;48.064;-0.792;2023-05-19T05:33:36;19.30;43.30
50955;DHT22;36966;48.064;-0.792;2023-05-19T05:35:56;19.30;43.30
50955;DHT22;36966;48.064;-0.792;2023-05-19T05:38:15;19.30;43.30
50955;DHT22;36966;48.064;-0.792;2023-05-19T05:40:34;19.30;43.30
50955;DHT22;36966;48.064;-0.792;2023-05-19T05:42:54;19.30;43.30
50955;DHT22;36966;48.064;-0.792;2023-05-19T05:45:22;19.30;43.30
50955;DHT22;36966;48.064;-0.792;2023-05-19T05:47:42;19.30;43.30
50955;DHT22;36966;48.064;-0.792;2023-05-19T05:50:02;19.30;43.30
50955;DHT22;36966;48.064;-0.792;2023-05-19T05:52:21;19.30;43.40
50955;DHT22;36966;48.064;-0.792;2023-05-19T05:54:42;19.30;43.40
50955;DHT22;36966;48.064;-0.792;2023-05-19T05:57:01;19.30;43.40
50955;DHT22;36966;48.064;-0.792;2023-05-19T05:59:21;19.30;43.40
50955;DHT22;36966;48.064;-0.792;2023-05-19T06:01:41;19.30;43.40
50955;DHT22;36966;48.064;-0.792;2023-05-19T06:04:01;19.30;43.40
50955;DHT22;36966;48.064;-0.792;2023-05-19T06:06:21;19.30;43.40
50955;DHT22;36966;48.064;-0.792;2023-05-19T06:08:40;19.30;43.40
50955;DHT22;36966;48.064;-0.792;2023-05-19T06:11:00;19.30;43.40
50955;DHT22;36966;48.064;-0.792;2023-05-19T06:13:19;19.30;43.50
50955;DHT22;36966;48.064;-0.792;2023-05-19T06:15:42;19.30;44.20
50955;DHT22;36966;48.064;-0.792;2023-05-19T06:18:01;18.70;45.70
50955;DHT22;36966;48.064;-0.792;2023-05-19T06:20:21;18.80;45.20
50955;DHT22;36966;48.064;-0.792;2023-05-19T06:22:40;19.00;44.90
50955;DHT22;36966;48.064;-0.792;2023-05-19T06:25:00;19.10;44.50
50955;DHT22;36966;48.064;-0.792;2023-05-19T06:27:19;19.20;44.40
50955;DHT22;36966;48.064;-0.792;2023-05-19T06:29:39;19.20;44.30
50955;DHT22;36966;48.064;-0.792;2023-05-19T06:31:58;19.20;44.20
50955;DHT22;36966;48.064;-0.792;2023-05-19T06:34:17;19.30;44.10
50955;DHT22;36966;48.064;-0.792;2023-05-19T06:36:40;19.30;44.40
50955;DHT22;36966;48.064;-0.792;2023-05-19T06:38:59;19.30;44.30
50955;DHT22;36966;48.064;-0.792;2023-05-19T06:41:18;19.30;44.30
50955;DHT22;36966;48.064;-0.792;2023-05-19T06:43:39;19.30;44.40
50955;DHT22;36966;48.064;-0.792;2023-05-19T06:45:58;19.30;44.30
50955;DHT22;36966;48.064;-0.792;2023-05-19T06:48:18;19.40;44.30
50955;DHT22;36966;48.064;-0.792;2023-05-19T06:50:38;19.40;44.30
50955;DHT22;36966;48.064;-0.792;2023-05-19T06:52:57;19.40;44.30
50955;DHT22;36966;48.064;-0.792;2023-05-19T06:55:16;19.40;44.40
50955;DHT22;36966;48.064;-0.792;2023-05-19T06:57:35;19.50;44.30
50955;DHT22;36966;48.064;-0.792;2023-05-19T06:59:58;19.50;44.30
50955;DHT22;36966;48.064;-0.792;2023-05-19T07:02:17;19.50;44.30
50955;DHT22;36966;48.064;-0.792;2023-05-19T07:04:36;19.50;44.20
50955;DHT22;36966;48.064;-0.792;2023-05-19T07:06:56;19.60;44.30
50955;DHT22;36966;48.064;-0.792;2023-05-19T07:09:15;19.60;44.20
50955;DHT22;36966;48.064;-0.792;2023-05-19T07:11:35;19.60;44.20
50955;DHT22;36966;48.064;-0.792;2023-05-19T07:13:54;19.70;44.20
50955;DHT22;36966;48.064;-0.792;2023-05-19T07:16:13;19.70;44.20
50955;DHT22;36966;48.064;-0.792;2023-05-19T07:18:32;19.70;44.10
50955;DHT22;36966;48.064;-0.792;2023-05-19T07:20:51;19.70;44.10
50955;DHT22;36966;48.064;-0.792;2023-05-19T07:23:11;19.70;44.20
50955;DHT22;36966;48.064;-0.792;2023-05-19T07:25:30;19.80;44.30
50955;DHT22;36966;48.064;-0.792;2023-05-19T07:27:51;19.80;44.20
50955;DHT22;36966;48.064;-0.792;2023-05-19T07:30:10;19.90;44.20
50955;DHT22;36966;48.064;-0.792;2023-05-19T07:32:30;19.90;44.10
50955;DHT22;36966;48.064;-0.792;2023-05-19T07:34:49;20.00;44.20
50955;DHT22;36966;48.064;-0.792;2023-05-19T07:37:08;20.00;44.10
50955;DHT22;36966;48.064;-0.792;2023-05-19T07:39:28;20.00;44.10
50955;DHT22;36966;48.064;-0.792;2023-05-19T07:41:47;20.00;44.10
50955;DHT22;36966;48.064;-0.792;2023-05-19T07:44:13;20.10;44.10
50955;DHT22;36966;48.064;-0.792;2023-05-19T07:46:33;20.10;44.10
50955;DHT22;36966;48.064;-0.792;2023-05-19T07:48:53;20.10;44.10
50955;DHT22;36966;48.064;-0.792;2023-05-19T07:51:13;20.10;44.00
50955;DHT22;36966;48.064;-0.792;2023-05-19T07:53:35;20.20;44.00
50955;DHT22;36966;48.064;-0.792;2023-05-19T07:55:54;20.20;43.90
50955;DHT22;36966;48.064;-0.792;2023-05-19T07:58:14;20.20;43.90
50955;DHT22;36966;48.064;-0.792;2023-05-19T08:00:34;20.20;43.80
50955;DHT22;36966;48.064;-0.792;2023-05-19T08:02:53;20.20;43.70
50955;DHT22;36966;48.064;-0.792;2023-05-19T08:05:22;20.30;43.40
50955;DHT22;36966;48.064;-0.792;2023-05-19T08:07:43;20.40;43.20
50955;DHT22;36966;48.064;-0.792;2023-05-19T08:10:05;20.40;43.20
50955;DHT22;36966;48.064;-0.792;2023-05-19T08:12:25;20.50;43.10
50955;DHT22;36966;48.064;-0.792;2023-05-19T08:14:44;20.50;42.90
50955;DHT22;36966;48.064;-0.792;2023-05-19T08:17:04;20.50;42.80
50955;DHT22;36966;48.064;-0.792;2023-05-19T08:19:23;20.60;42.60
50955;DHT22;36966;48.064;-0.792;2023-05-19T08:21:42;20.60;42.50
50955;DHT22;36966;48.064;-0.792;2023-05-19T08:24:07;20.70;42.60
50955;DHT22;36966;48.064;-0.792;2023-05-19T08:26:27;20.70;42.50
50955;DHT22;36966;48.064;-0.792;2023-05-19T08:28:46;20.70;42.20
50955;DHT22;36966;48.064;-0.792;2023-05-19T08:31:09;20.80;41.90
50955;DHT22;36966;48.064;-0.792;2023-05-19T08:33:28;20.80;41.90
50955;DHT22;36966;48.064;-0.792;2023-05-19T08:35:48;20.80;41.90
50955;DHT22;36966;48.064;-0.792;2023-05-19T08:38:08;20.90;41.80
50955;DHT22;36966;48.064;-0.792;2023-05-19T08:40:27;20.80;41.80
50955;DHT22;36966;48.064;-0.792;2023-05-19T08:42:49;20.90;41.60
50955;DHT22;36966;48.064;-0.792;2023-05-19T08:45:08;21.00;41.60
50955;DHT22;36966;48.064;-0.792;2023-05-19T08:47:30;21.00;41.60
50955;DHT22;36966;48.064;-0.792;2023-05-19T08:49:51;21.10;41.70
50955;DHT22;36966;48.064;-0.792;2023-05-19T08:54:45;21.00;41.70
50955;DHT22;36966;48.064;-0.792;2023-05-19T08:57:04;21.10;41.70
50955;DHT22;36966;48.064;-0.792;2023-05-19T08:59:24;21.10;41.70
50955;DHT22;36966;48.064;-0.792;2023-05-19T09:04:33;21.20;41.70
50955;DHT22;36966;48.064;-0.792;2023-05-19T09:06:53;21.20;41.80
50955;DHT22;36966;48.064;-0.792;2023-05-19T09:09:12;21.20;41.30
50955;DHT22;36966;48.064;-0.792;2023-05-19T09:11:32;21.30;41.70
50955;DHT22;36966;48.064;-0.792;2023-05-19T09:13:52;21.20;41.60
50955;DHT22;36966;48.064;-0.792;2023-05-19T09:16:12;21.30;41.70
50955;DHT22;36966;48.064;-0.792;2023-05-19T09:18:32;21.30;41.60
50955;DHT22;36966;48.064;-0.792;2023-05-19T09:20:55;21.30;41.60
50955;DHT22;36966;48.064;-0.792;2023-05-19T09:23:18;21.30;41.60
50955;DHT22;36966;48.064;-0.792;2023-05-19T09:25:48;21.30;41.60
50955;DHT22;36966;48.064;-0.792;2023-05-19T09:28:08;21.30;41.50
50955;DHT22;36966;48.064;-0.792;2023-05-19T09:30:27;21.30;41.30
50955;DHT22;36966;48.064;-0.792;2023-05-19T09:32:46;21.40;41.20
50955;DHT22;36966;48.064;-0.792;2023-05-19T09:35:06;21.30;40.80
50955;DHT22;36966;48.064;-0.792;2023-05-19T09:37:26;21.40;41.00
50955;DHT22;36966;48.064;-0.792;2023-05-19T09:39:45;21.40;40.50
50955;DHT22;36966;48.064;-0.792;2023-05-19T09:42:09;21.40;40.90
50955;DHT22;36966;48.064;-0.792;2023-05-19T09:44:28;21.40;40.80
50955;DHT22;36966;48.064;-0.792;2023-05-19T09:46:51;21.40;40.80
50955;DHT22;36966;48.064;-0.792;2023-05-19T09:49:10;21.40;40.90
50955;DHT22;36966;48.064;-0.792;2023-05-19T09:51:31;21.50;40.90
50955;DHT22;36966;48.064;-0.792;2023-05-19T09:53:51;21.40;40.70
50955;DHT22;36966;48.064;-0.792;2023-05-19T09:56:13;21.50;40.70
50955;DHT22;36966;48.064;-0.792;2023-05-19T09:58:32;21.50;40.80
50955;DHT22;36966;48.064;-0.792;2023-05-19T10:00:55;21.50;40.70
50955;DHT22;36966;48.064;-0.792;2023-05-19T10:03:14;21.50;40.50
50955;DHT22;36966;48.064;-0.792;2023-05-19T10:05:35;21.50;40.50
50955;DHT22;36966;48.064;-0.792;2023-05-19T10:07:55;21.60;40.80
50955;DHT22;36966;48.064;-0.792;2023-05-19T10:10:15;21.50;40.80
50955;DHT22;36966;48.064;-0.792;2023-05-19T10:12:34;21.60;40.30
50955;DHT22;36966;48.064;-0.792;2023-05-19T10:14:55;21.70;40.40
50955;DHT22;36966;48.064;-0.792;2023-05-19T10:17:14;21.60;40.20
50955;DHT22;36966;48.064;-0.792;2023-05-19T10:19:34;21.70;39.80
50955;DHT22;36966;48.064;-0.792;2023-05-19T10:21:54;21.70;39.70
50955;DHT22;36966;48.064;-0.792;2023-05-19T10:24:13;21.70;39.30
50955;DHT22;36966;48.064;-0.792;2023-05-19T10:26:33;21.70;39.70
50955;DHT22;36966;48.064;-0.792;2023-05-19T10:28:53;21.70;39.50
50955;DHT22;36966;48.064;-0.792;2023-05-19T10:31:12;21.80;39.70
50955;DHT22;36966;48.064;-0.792;2023-05-19T10:33:39;21.80;39.60
50955;DHT22;36966;48.064;-0.792;2023-05-19T10:38:49;21.80;39.70
50955;DHT22;36966;48.064;-0.792;2023-05-19T10:41:30;21.90;39.50
50955;DHT22;36966;48.064;-0.792;2023-05-19T10:44:08;21.90;39.40
50955;DHT22;36966;48.064;-0.792;2023-05-19T10:46:28;21.80;39.60
50955;DHT22;36966;48.064;-0.792;2023-05-19T10:48:48;21.90;39.20
50955;DHT22;36966;48.064;-0.792;2023-05-19T10:51:07;21.80;38.10
50955;DHT22;36966;48.064;-0.792;2023-05-19T10:53:30;21.80;38.60
50955;DHT22;36966;48.064;-0.792;2023-05-19T10:55:51;21.80;38.90
50955;DHT22;36966;48.064;-0.792;2023-05-19T10:58:11;21.70;38.60
50955;DHT22;36966;48.064;-0.792;2023-05-19T11:00:30;21.70;39.00
50955;DHT22;36966;48.064;-0.792;2023-05-19T11:02:50;21.70;38.90
50955;DHT22;36966;48.064;-0.792;2023-05-19T11:05:14;21.70;38.50
50955;DHT22;36966;48.064;-0.792;2023-05-19T11:07:35;21.70;38.50
50955;DHT22;36966;48.064;-0.792;2023-05-19T11:09:55;21.70;38.80
50955;DHT22;36966;48.064;-0.792;2023-05-19T11:12:16;21.70;38.70
50955;DHT22;36966;48.064;-0.792;2023-05-19T11:14:38;21.70;38.90
50955;DHT22;36966;48.064;-0.792;2023-05-19T11:16:58;21.70;38.80
50955;DHT22;36966;48.064;-0.792;2023-05-19T11:19:28;21.70;39.00
50955;DHT22;36966;48.064;-0.792;2023-05-19T11:21:48;21.70;38.00
50955;DHT22;36966;48.064;-0.792;2023-05-19T11:26:50;21.70;38.40
50955;DHT22;36966;48.064;-0.792;2023-05-19T11:29:13;21.70;38.50
50955;DHT22;36966;48.064;-0.792;2023-05-19T11:31:32;21.70;38.50
50955;DHT22;36966;48.064;-0.792;2023-05-19T11:33:54;21.70;38.50
50955;DHT22;36966;48.064;-0.792;2023-05-19T11:36:14;21.80;38.20
50955;DHT22;36966;48.064;-0.792;2023-05-19T11:38:34;21.80;37.90
50955;DHT22;36966;48.064;-0.792;2023-05-19T11:40:54;21.80;37.80
50955;DHT22;36966;48.064;-0.792;2023-05-19T11:43:14;21.90;38.00
50955;DHT22;36966;48.064;-0.792;2023-05-19T11:45:34;21.90;38.10
50955;DHT22;36966;48.064;-0.792;2023-05-19T11:47:54;21.90;38.20
50955;DHT22;36966;48.064;-0.792;2023-05-19T11:50:16;21.90;38.10
50955;DHT22;36966;48.064;-0.792;2023-05-19T11:52:36;21.90;37.80
50955;DHT22;36966;48.064;-0.792;2023-05-19T11:54:59;22.00;37.80
50955;DHT22;36966;48.064;-0.792;2023-05-19T11:57:19;22.00;38.00
50955;DHT22;36966;48.064;-0.792;2023-05-19T11:59:39;22.00;37.90
50955;DHT22;36966;48.064;-0.792;2023-05-19T12:02:23;22.00;37.70
50955;DHT22;36966;48.064;-0.792;2023-05-19T12:04:46;22.10;38.20
50955;DHT22;36966;48.064;-0.792;2023-05-19T12:07:06;22.10;38.20
50955;DHT22;36966;48.064;-0.792;2023-05-19T12:09:26;22.10;37.50
50955;DHT22;36966;48.064;-0.792;2023-05-19T12:11:46;22.10;38.00
50955;DHT22;36966;48.064;-0.792;2023-05-19T12:14:05;22.10;37.50
50955;DHT22;36966;48.064;-0.792;2023-05-19T12:16:34;22.10;37.90
50955;DHT22;36966;48.064;-0.792;2023-05-19T12:18:54;22.10;37.80
50955;DHT22;36966;48.064;-0.792;2023-05-19T12:21:13;22.10;37.50
50955;DHT22;36966;48.064;-0.792;2023-05-19T12:23:33;22.10;37.90
50955;DHT22;36966;48.064;-0.792;2023-05-19T12:25:52;22.00;37.40
50955;DHT22;36966;48.064;-0.792;2023-05-19T12:28:11;22.00;37.90
50955;DHT22;36966;48.064;-0.792;2023-05-19T12:30:30;22.00;37.90
50955;DHT22;36966;48.064;-0.792;2023-05-19T12:32:52;22.10;38.00
50955;DHT22;36966;48.064;-0.792;2023-05-19T12:35:14;22.10;38.20
50955;DHT22;36966;48.064;-0.792;2023-05-19T12:37:33;22.00;37.80
50955;DHT22;36966;48.064;-0.792;2023-05-19T12:39:54;22.00;37.80
50955;DHT22;36966;48.064;-0.792;2023-05-19T12:42:14;22.00;38.00
50955;DHT22;36966;48.064;-0.792;2023-05-19T12:44:37;22.00;37.70
50955;DHT22;36966;48.064;-0.792;2023-05-19T12:46:57;22.00;37.80
50955;DHT22;36966;48.064;-0.792;2023-05-19T12:49:17;22.00;37.60
50955;DHT22;36966;48.064;-0.792;2023-05-19T12:51:36;22.00;36.90
50955;DHT22;36966;48.064;-0.792;2023-05-19T12:53:55;22.00;37.20
50955;DHT22;36966;48.064;-0.792;2023-05-19T12:56:15;21.90;37.70
50955;DHT22;36966;48.064;-0.792;2023-05-19T12:58:35;21.90;37.60
50955;DHT22;36966;48.064;-0.792;2023-05-19T13:00:57;21.90;38.30
50955;DHT22;36966;48.064;-0.792;2023-05-19T13:03:17;21.90;38.10
50955;DHT22;36966;48.064;-0.792;2023-05-19T13:05:38;21.90;38.20
50955;DHT22;36966;48.064;-0.792;2023-05-19T13:07:58;21.80;38.10
50955;DHT22;36966;48.064;-0.792;2023-05-19T13:10:18;21.90;38.40
50955;DHT22;36966;48.064;-0.792;2023-05-19T13:12:37;21.80;37.90
50955;DHT22;36966;48.064;-0.792;2023-05-19T13:14:57;21.80;37.50
50955;DHT22;36966;48.064;-0.792;2023-05-19T13:17:17;21.80;38.30
50955;DHT22;36966;48.064;-0.792;2023-05-19T13:19:38;21.80;38.50
50955;DHT22;36966;48.064;-0.792;2023-05-19T13:21:57;21.80;38.60
50955;DHT22;36966;48.064;-0.792;2023-05-19T13:24:17;21.80;38.70
50955;DHT22;36966;48.064;-0.792;2023-05-19T13:26:36;21.80;38.30
50955;DHT22;36966;48.064;-0.792;2023-05-19T13:28:56;21.80;38.50
50955;DHT22;36966;48.064;-0.792;2023-05-19T13:31:17;21.80;38.50
50955;DHT22;36966;48.064;-0.792;2023-05-19T13:33:39;21.80;38.20
50955;DHT22;36966;48.064;-0.792;2023-05-19T13:35:58;21.70;38.00
50955;DHT22;36966;48.064;-0.792;2023-05-19T13:38:18;21.70;37.60
50955;DHT22;36966;48.064;-0.792;2023-05-19T13:40:37;21.70;37.90
50955;DHT22;36966;48.064;-0.792;2023-05-19T13:42:57;21.70;37.60
50955;DHT22;36966;48.064;-0.792;2023-05-19T13:45:19;21.70;37.70
50955;DHT22;36966;48.064;-0.792;2023-05-19T13:47:39;21.70;37.00
50955;DHT22;36966;48.064;-0.792;2023-05-19T13:49:58;21.70;37.50
50955;DHT22;36966;48.064;-0.792;2023-05-19T13:52:18;21.60;38.10
50955;DHT22;36966;48.064;-0.792;2023-05-19T13:54:38;21.60;37.80
50955;DHT22;36966;48.064;-0.792;2023-05-19T13:56:57;21.60;37.80
50955;DHT22;36966;48.064;-0.792;2023-05-19T13:59:16;21.60;37.90
50955;DHT22;36966;48.064;-0.792;2023-05-19T14:01:48;21.60;38.10
50955;DHT22;36966;48.064;-0.792;2023-05-19T14:04:07;21.60;38.10
50955;DHT22;36966;48.064;-0.792;2023-05-19T14:06:27;21.60;37.90
50955;DHT22;36966;48.064;-0.792;2023-05-19T14:08:47;21.70;38.20
50955;DHT22;36966;48.064;-0.792;2023-05-19T14:11:06;21.70;37.90
50955;DHT22;36966;48.064;-0.792;2023-05-19T14:13:26;21.70;38.10
50955;DHT22;36966;48.064;-0.792;2023-05-19T14:15:45;21.70;37.90
50955;DHT22;36966;48.064;-0.792;2023-05-19T14:18:05;21.70;37.90
50955;DHT22;36966;48.064;-0.792;2023-05-19T14:20:24;21.70;38.10
50955;DHT22;36966;48.064;-0.792;2023-05-19T14:22:43;21.70;38.00
50955;DHT22;36966;48.064;-0.792;2023-05-19T14:25:03;21.70;37.90
50955;DHT22;36966;48.064;-0.792;2023-05-19T14:27:27;21.70;37.90
50955;DHT22;36966;48.064;-0.792;2023-05-19T14:29:47;21.70;37.80
50955;DHT22;36966;48.064;-0.792;2023-05-19T14:32:06;21.70;37.80
50955;DHT22;36966;48.064;-0.792;2023-05-19T14:34:26;21.70;37.80
50955;DHT22;36966;48.064;-0.792;2023-05-19T14:36:46;21.70;37.90
50955;DHT22;36966;48.064;-0.792;2023-05-19T14:39:06;21.70;37.90
50955;DHT22;36966;48.064;-0.792;2023-05-19T14:41:26;21.70;37.70
50955;DHT22;36966;48.064;-0.792;2023-05-19T14:43:45;21.70;37.60
50955;DHT22;36966;48.064;-0.792;2023-05-19T14:46:05;21.70;37.40
50955;DHT22;36966;48.064;-0.792;2023-05-19T14:48:24;21.70;37.50
50955;DHT22;36966;48.064;-0.792;2023-05-19T14:50:45;21.70;37.40
50955;DHT22;36966;48.064;-0.792;2023-05-19T14:53:09;21.70;37.40